Time,TemperatureF,DewpointF,PressureIn,WindDirection,WindDirectionDegrees,WindSpeedMPH,WindSpeedGustMPH,Humidity,HourlyPrecipIn,Conditions,Clouds,dailyrainin,SolarRadiationWatts/m^2,SoftwareType,DateUTC
2013-04-12 00:11:00,44.7,43.0,29.63,WSW,242,2.0,13.0,94,0.01,,,0.84,0,weatherlink.com 1.10,2013-04-12 04:11:00,
2013-04-12 00:26:00,44.0,42.0,29.63,NW,311,6.0,8.0,93,0.01,,,0.84,0,weatherlink.com 1.10,2013-04-12 04:26:00,
2013-04-12 00:41:00,43.4,42.0,29.64,WNW,302,4.0,11.0,93,0.01,,,0.84,0,weatherlink.com 1.10,2013-04-12 04:41:00,
2013-04-12 00:56:00,42.8,40.0,29.64,NW,322,5.0,18.0,90,0.01,,,0.84,0,weatherlink.com 1.10,2013-04-12 04:56:00,
2013-04-12 01:11:00,42.4,39.0,29.65,West,281,2.0,11.0,89,0.00,,,0.84,0,weatherlink.com 1.10,2013-04-12 05:11:00,
2013-04-12 01:28:00,41.7,38.0,29.65,WSW,250,13.0,15.0,87,0.00,,,0.84,0,weatherlink.com 1.10,2013-04-12 05:28:00,
2013-04-12 01:41:00,41.2,37.0,29.66,West,281,10.0,13.0,86,0.00,,,0.84,0,weatherlink.com 1.10,2013-04-12 05:41:00,
2013-04-12 01:57:00,40.7,37.0,29.67,West,269,4.0,26.0,86,0.00,,,0.84,0,weatherlink.com 1.10,2013-04-12 05:57:00,
2013-04-12 02:11:00,40.2,36.0,29.68,SW,235,5.0,14.0,85,0.00,,,0.84,0,weatherlink.com 1.10,2013-04-12 06:11:00,
2013-04-12 02:26:00,39.6,35.0,29.68,West,277,8.0,12.0,82,0.00,,,0.84,0,weatherlink.com 1.10,2013-04-12 06:26:00,
2013-04-12 02:43:00,39.3,34.0,29.68,NW,315,2.0,10.0,82,0.00,,,0.84,0,weatherlink.com 1.10,2013-04-12 06:43:00,
2013-04-12 03:15:00,38.8,34.0,29.67,WNW,288,0.0,8.0,82,0.00,,,0.84,0,weatherlink.com 1.10,2013-04-12 07:15:00,
2013-04-12 03:59:00,38.6,33.0,29.66,West,270,3.0,11.0,80,0.00,,,0.84,0,weatherlink.com 1.10,2013-04-12 07:59:00,
2013-04-12 04:12:00,38.6,33.0,29.66,WSW,246,4.0,12.0,80,0.00,,,0.00,0,weatherlink.com 1.10,2013-04-12 08:12:00,
2013-04-12 04:27:00,38.5,33.0,29.67,WSW,256,6.0,13.0,79,0.00,,,0.00,0,weatherlink.com 1.10,2013-04-12 08:27:00,
2013-04-12 04:42:00,38.3,32.0,29.68,SW,236,9.0,13.0,79,0.00,,,0.00,0,weatherlink.com 1.10,2013-04-12 08:42:00,
2013-04-12 05:01:00,38.2,32.0,29.68,WSW,242,4.0,15.0,79,0.00,,,0.00,0,weatherlink.com 1.10,2013-04-12 09:01:00,
2013-04-12 05:12:00,38.0,32.0,29.68,West,269,1.0,11.0,79,0.00,,,0.00,0,weatherlink.com 1.10,2013-04-12 09:12:00,
2013-04-12 05:27:00,37.8,32.0,29.69,WSW,249,1.0,11.0,80,0.00,,,0.00,0,weatherlink.com 1.10,2013-04-12 09:27:00,
2013-04-12 05:42:00,37.2,32.0,29.69,WSW,246,4.0,10.0,81,0.00,,,0.00,0,weatherlink.com 1.10,2013-04-12 09:42:00,
2013-04-12 05:57:00,36.6,31.0,29.70,WSW,247,6.0,9.0,80,0.00,,,0.00,0,weatherlink.com 1.10,2013-04-12 09:57:00,
2013-04-12 06:15:00,36.2,30.0,29.71,WSW,247,3.0,11.0,77,0.00,,,0.00,0,weatherlink.com 1.10,2013-04-12 10:15:00,
2013-04-12 06:27:00,35.8,29.0,29.71,SW,232,2.0,6.0,77,0.00,,,0.00,0,weatherlink.com 1.10,2013-04-12 10:27:00,
2013-04-12 06:42:00,35.3,29.0,29.72,SW,227,0.0,7.0,78,0.00,,,0.00,0,weatherlink.com 1.10,2013-04-12 10:42:00,
2013-04-12 07:01:00,35.0,29.0,29.73,SW,227,2.0,6.0,79,0.00,,,0.00,0,weatherlink.com 1.10,2013-04-12 11:01:00,
2013-04-12 07:12:00,34.9,29.0,29.74,SSW,211,1.0,7.0,80,0.00,,,0.00,0,weatherlink.com 1.10,2013-04-12 11:12:00,
2013-04-12 07:28:00,34.8,30.0,29.75,SW,223,4.0,8.0,81,0.00,,,0.00,14,weatherlink.com 1.10,2013-04-12 11:28:00,
2013-04-12 07:45:00,35.1,30.0,29.75,West,264,4.0,10.0,82,0.00,,,0.00,33,weatherlink.com 1.10,2013-04-12 11:45:00,
2013-04-12 07:58:00,35.5,31.0,29.75,WSW,240,4.0,7.0,82,0.00,,,0.00,47,weatherlink.com 1.10,2013-04-12 11:58:00,
2013-04-12 08:34:00,36.8,31.0,29.76,SW,233,4.0,14.0,80,0.00,,,0.00,121,weatherlink.com 1.10,2013-04-12 12:34:00,
2013-04-12 08:43:00,37.1,31.0,29.76,SSW,212,5.0,10.0,78,0.00,,,0.00,130,weatherlink.com 1.10,2013-04-12 12:43:00,
2013-04-12 09:06:00,38.4,32.0,29.76,SSW,199,1.0,11.0,77,0.00,,,0.00,153,weatherlink.com 1.10,2013-04-12 13:06:00,
2013-04-12 09:23:00,39.1,32.0,29.76,SSW,209,7.0,8.0,77,0.00,,,0.00,183,weatherlink.com 1.10,2013-04-12 13:23:00,
2013-04-12 09:51:00,40.4,33.0,29.76,SW,232,7.0,13.0,75,0.00,,,0.00,244,weatherlink.com 1.10,2013-04-12 13:51:00,
2013-04-12 10:05:00,41.1,34.0,29.76,SW,223,5.0,14.0,75,0.00,,,0.00,329,weatherlink.com 1.10,2013-04-12 14:05:00,
2013-04-12 10:28:00,41.6,33.0,29.77,SSW,205,9.0,15.0,72,0.00,,,0.00,686,weatherlink.com 1.10,2013-04-12 14:28:00,
2013-04-12 10:43:00,41.9,33.0,29.77,WSW,258,5.0,15.0,71,0.00,,,0.00,281,weatherlink.com 1.10,2013-04-12 14:43:00,
2013-04-12 10:58:00,42.6,33.0,29.77,SW,236,8.0,15.0,70,0.00,,,0.00,919,weatherlink.com 1.10,2013-04-12 14:58:00,
2013-04-12 11:13:00,43.6,35.0,29.77,SSW,204,5.0,15.0,72,0.00,,,0.00,299,weatherlink.com 1.10,2013-04-12 15:13:00,
2013-04-12 11:28:00,42.7,34.0,29.77,WSW,248,11.0,19.0,70,0.00,,,0.00,313,weatherlink.com 1.10,2013-04-12 15:28:00,
2013-04-12 11:43:00,42.9,33.0,29.77,SW,225,6.0,21.0,68,0.00,,,0.00,204,weatherlink.com 1.10,2013-04-12 15:43:00,
2013-04-12 11:58:00,42.2,32.0,29.78,WSW,242,4.0,19.0,68,0.00,,,0.00,172,weatherlink.com 1.10,2013-04-12 15:58:00,
2013-04-12 12:13:00,42.9,33.0,29.79,SSW,203,5.0,16.0,67,0.00,,,0.00,165,weatherlink.com 1.10,2013-04-12 16:13:00,
2013-04-12 12:28:00,42.5,32.0,29.79,SW,223,8.0,13.0,67,0.00,,,0.00,163,weatherlink.com 1.10,2013-04-12 16:28:00,
2013-04-12 12:44:00,43.0,33.0,29.79,SW,215,8.0,15.0,68,0.00,,,0.00,186,weatherlink.com 1.10,2013-04-12 16:44:00,
2013-04-12 12:58:00,42.5,32.0,29.80,SW,223,9.0,18.0,67,0.00,,,0.00,151,weatherlink.com 1.10,2013-04-12 16:58:00,
2013-04-12 13:15:00,42.6,32.0,29.80,SW,231,10.0,14.0,66,0.00,,,0.00,199,weatherlink.com 1.10,2013-04-12 17:15:00,
2013-04-12 13:33:00,42.2,31.0,29.81,South,188,9.0,16.0,66,0.00,,,0.00,104,weatherlink.com 1.10,2013-04-12 17:33:00,
2013-04-12 13:43:00,42.1,32.0,29.81,South,169,4.0,14.0,67,0.00,,,0.00,134,weatherlink.com 1.10,2013-04-12 17:43:00,
2013-04-12 13:58:00,42.3,32.0,29.81,WSW,246,7.0,15.0,66,0.00,,,0.00,237,weatherlink.com 1.10,2013-04-12 17:58:00,
2013-04-12 14:14:00,42.5,31.0,29.82,SW,217,11.0,19.0,65,0.00,,,0.00,246,weatherlink.com 1.10,2013-04-12 18:14:00,
2013-04-12 14:29:00,42.8,32.0,29.82,WSW,238,12.0,24.0,67,0.00,,,0.00,299,weatherlink.com 1.10,2013-04-12 18:29:00,
2013-04-12 15:31:00,42.3,32.0,29.86,South,178,4.0,16.0,66,0.00,,,0.00,116,weatherlink.com 1.10,2013-04-12 19:31:00,
2013-04-12 15:44:00,42.9,32.0,29.86,WNW,294,10.0,21.0,65,0.00,,,0.00,197,weatherlink.com 1.10,2013-04-12 19:44:00,
2013-04-12 15:59:00,44.4,34.0,29.86,WSW,240,9.0,16.0,66,0.00,,,0.00,882,weatherlink.com 1.10,2013-04-12 19:59:00,
2013-04-12 16:14:00,45.3,32.0,29.86,WNW,282,7.0,21.0,60,0.00,,,0.00,388,weatherlink.com 1.10,2013-04-12 20:14:00,
2013-04-12 16:40:00,45.7,33.0,29.85,SSW,208,8.0,16.0,62,0.00,,,0.00,302,weatherlink.com 1.10,2013-04-12 20:40:00,
2013-04-12 16:45:00,45.5,32.0,29.85,SW,214,5.0,19.0,59,0.00,,,0.00,290,weatherlink.com 1.10,2013-04-12 20:45:00,
2013-04-12 17:02:00,44.6,32.0,29.87,SW,225,13.0,21.0,61,0.00,,,0.00,123,weatherlink.com 1.10,2013-04-12 21:02:00,
2013-04-12 17:15:00,44.3,32.0,29.88,SW,232,12.0,14.0,62,0.00,,,0.00,88,weatherlink.com 1.10,2013-04-12 21:15:00,
2013-04-12 17:39:00,44.2,32.0,29.88,SW,234,10.0,15.0,63,0.00,,,0.00,105,weatherlink.com 1.10,2013-04-12 21:39:00,
2013-04-12 17:45:00,44.1,32.0,29.89,SW,236,4.0,15.0,63,0.00,,,0.00,54,weatherlink.com 1.10,2013-04-12 21:45:00,
2013-04-12 18:03:00,43.9,32.0,29.89,SSW,202,13.0,13.0,64,0.00,,,0.00,56,weatherlink.com 1.10,2013-04-12 22:03:00,
2013-04-12 18:15:00,43.9,32.0,29.90,WNW,291,9.0,14.0,64,0.00,,,0.00,62,weatherlink.com 1.10,2013-04-12 22:15:00,
2013-04-12 18:30:00,44.1,33.0,29.90,WSW,243,7.0,11.0,65,0.00,,,0.00,65,weatherlink.com 1.10,2013-04-12 22:30:00,
2013-04-12 18:50:00,44.0,33.0,29.91,WSW,244,4.0,9.0,65,0.00,,,0.00,60,weatherlink.com 1.10,2013-04-12 22:50:00,
2013-04-12 19:00:00,43.9,33.0,29.91,West,259,7.0,13.0,65,0.00,,,0.00,47,weatherlink.com 1.10,2013-04-12 23:00:00,
2013-04-12 19:19:00,43.6,33.0,29.91,West,270,4.0,12.0,66,0.00,,,0.00,26,weatherlink.com 1.10,2013-04-12 23:19:00,
2013-04-12 19:30:00,43.5,33.0,29.92,West,266,1.0,12.0,67,0.00,,,0.00,26,weatherlink.com 1.10,2013-04-12 23:30:00,
2013-04-12 19:45:00,43.3,33.0,29.92,SSW,211,6.0,10.0,67,0.00,,,0.00,18,weatherlink.com 1.10,2013-04-12 23:45:00,
2013-04-12 20:00:00,43.2,33.0,29.93,West,267,4.0,9.0,68,0.00,,,0.00,5,weatherlink.com 1.10,2013-04-13 00:00:00,
2013-04-12 20:15:00,42.9,33.0,29.93,West,266,4.0,13.0,69,0.00,,,0.00,0,weatherlink.com 1.10,2013-04-13 00:15:00,
2013-04-12 20:30:00,42.6,33.0,29.93,West,259,6.0,10.0,69,0.00,,,0.00,0,weatherlink.com 1.10,2013-04-13 00:30:00,
2013-04-12 20:48:00,42.3,33.0,29.93,West,269,2.0,10.0,70,0.00,,,0.00,0,weatherlink.com 1.10,2013-04-13 00:48:00,
2013-04-12 21:00:00,42.0,33.0,29.93,WSW,240,4.0,9.0,71,0.00,,,0.00,0,weatherlink.com 1.10,2013-04-13 01:00:00,
2013-04-12 21:16:00,41.8,33.0,29.94,WSW,246,5.0,7.0,72,0.00,,,0.00,0,weatherlink.com 1.10,2013-04-13 01:16:00,
2013-04-12 21:30:00,41.7,34.0,29.95,WNW,286,1.0,6.0,73,0.00,,,0.00,0,weatherlink.com 1.10,2013-04-13 01:30:00,
2013-04-12 21:45:00,41.5,33.0,29.95,West,261,2.0,7.0,73,0.00,,,0.00,0,weatherlink.com 1.10,2013-04-13 01:45:00,
2013-04-12 22:00:00,41.4,34.0,29.95,West,275,2.0,6.0,74,0.00,,,0.00,0,weatherlink.com 1.10,2013-04-13 02:00:00,
2013-04-12 22:17:00,41.3,34.0,29.96,WSW,241,0.0,5.0,75,0.00,,,0.00,0,weatherlink.com 1.10,2013-04-13 02:17:00,
2013-04-12 22:30:00,41.1,33.0,29.96,West,265,3.0,7.0,74,0.00,,,0.00,0,weatherlink.com 1.10,2013-04-13 02:30:00,
2013-04-12 22:46:00,41.0,34.0,29.96,West,261,1.0,5.0,75,0.00,,,0.00,0,weatherlink.com 1.10,2013-04-13 02:46:00,
2013-04-12 23:01:00,40.9,34.0,29.96,WSW,241,1.0,6.0,76,0.00,,,0.00,0,weatherlink.com 1.10,2013-04-13 03:01:00,
2013-04-12 23:15:00,40.8,34.0,29.97,West,275,2.0,7.0,76,0.00,,,0.00,0,weatherlink.com 1.10,2013-04-13 03:15:00,
2013-04-12 23:30:00,40.7,33.0,29.97,WSW,244,2.0,8.0,73,0.00,,,0.00,0,weatherlink.com 1.10,2013-04-13 03:30:00,
2013-04-12 23:49:00,40.4,32.0,29.97,WSW,247,0.0,7.0,73,0.00,,,0.00,0,weatherlink.com 1.10,2013-04-13 03:49:00,